createdAt,value
2023-02-11T00:01:54.047Z,92.27
2023-02-11T00:04:56.057Z,92.97
2023-02-11T00:07:58.521Z,102.53
2023-02-11T00:11:00.440Z,103.37
2023-02-11T00:14:03.435Z,107.50
2023-02-11T00:17:05.460Z,94.45
2023-02-11T00:20:08.388Z,97.00
2023-02-11T00:23:10.814Z,94.20
2023-02-11T00:26:13.503Z,95.38
2023-02-11T00:29:17.663Z,95.07
2023-02-11T00:32:20.108Z,94.00
2023-02-11T00:35:22.479Z,91.07
2023-02-11T00:38:24.462Z,90.28
2023-02-11T00:41:26.977Z,91.67
2023-02-11T00:44:29.051Z,89.15
2023-02-11T00:47:31.436Z,96.30
2023-02-11T00:50:35.016Z,94.88
2023-02-11T00:53:37.037Z,94.97
2023-02-11T00:56:39.634Z,91.22
2023-02-11T00:59:41.700Z,88.03
2023-02-11T01:02:43.825Z,86.40
2023-02-11T01:05:45.862Z,82.00
2023-02-11T01:08:47.816Z,83.88
2023-02-11T01:11:50.181Z,79.37
2023-02-11T01:14:52.275Z,81.90
2023-02-11T01:17:54.856Z,91.93
2023-02-11T01:20:56.986Z,99.63
2023-02-11T01:23:58.950Z,98.22
2023-02-11T01:27:01.539Z,92.68
2023-02-11T01:30:04.844Z,89.03
2023-02-11T01:33:06.843Z,75.43
2023-02-11T01:36:09.109Z,82.65
2023-02-11T01:39:11.646Z,80.38
2023-02-11T01:42:17.603Z,81.97
2023-02-11T01:45:38.997Z,78.93
2023-02-11T01:48:44.645Z,78.20
2023-02-11T01:51:48.251Z,76.72
2023-02-11T01:55:13.929Z,89.10
2023-02-11T01:58:16.415Z,89.00
2023-02-11T02:01:19.617Z,91.30
2023-02-11T02:04:21.825Z,72.40
2023-02-11T02:07:34.313Z,79.60
2023-02-11T02:10:37.709Z,82.60
2023-02-11T02:13:39.738Z,84.03
2023-02-11T02:16:54.677Z,72.90
2023-02-11T02:20:11.926Z,73.55
2023-02-11T02:23:25.373Z,80.07
2023-02-11T02:26:30.775Z,79.57
2023-02-11T02:29:38.345Z,73.05
2023-02-11T02:32:51.784Z,76.55
2023-02-11T02:36:07.442Z,75.80
2023-02-11T02:39:14.881Z,72.18
2023-02-11T02:42:16.845Z,74.95
2023-02-11T02:45:19.261Z,74.67
2023-02-11T02:48:25.684Z,73.18
2023-02-11T02:51:33.709Z,67.45
2023-02-11T02:55:02.721Z,73.30
2023-02-11T02:58:23.110Z,73.05
2023-02-11T03:01:25.722Z,72.25
2023-02-11T03:04:50.750Z,67.75
2023-02-11T03:07:55.656Z,72.70
2023-02-11T03:10:57.786Z,77.82
2023-02-11T03:14:00.457Z,73.53
2023-02-11T03:17:03.506Z,75.00
2023-02-11T03:20:05.894Z,74.43
2023-02-11T03:23:14.216Z,83.43
2023-02-11T03:26:23.233Z,78.25
2023-02-11T03:29:25.545Z,79.32
2023-02-11T03:32:28.809Z,71.35
2023-02-11T03:35:41.905Z,72.15
2023-02-11T03:38:45.226Z,79.83
2023-02-11T03:41:47.685Z,74.10
2023-02-11T03:44:56.442Z,75.75
2023-02-11T03:48:00.293Z,70.03
2023-02-11T03:51:02.876Z,70.22
2023-02-11T03:54:06.064Z,70.75
2023-02-11T03:57:08.030Z,83.22
2023-02-11T04:00:10.435Z,75.47
2023-02-11T04:03:15.934Z,69.88
2023-02-11T04:06:17.931Z,69.53
2023-02-11T04:09:19.995Z,77.53
2023-02-11T04:12:22.117Z,75.38
2023-02-11T04:15:24.733Z,76.72
2023-02-11T04:18:26.683Z,75.43
2023-02-11T04:21:28.719Z,77.15
2023-02-11T04:24:30.646Z,80.30
2023-02-11T04:27:32.854Z,80.03
2023-02-11T04:30:34.884Z,78.95
2023-02-11T04:33:37.501Z,73.38
2023-02-11T04:36:39.799Z,76.32
2023-02-11T04:39:42.387Z,83.60
2023-02-11T04:42:44.475Z,76.63
2023-02-11T04:45:46.900Z,83.70
2023-02-11T04:48:48.829Z,80.27
2023-02-11T04:51:51.206Z,95.88
2023-02-11T04:54:54.953Z,96.85
2023-02-11T04:57:56.962Z,96.88
2023-02-11T05:01:12.029Z,85.05
2023-02-11T05:04:14.041Z,81.85
2023-02-11T05:07:16.170Z,86.45
2023-02-11T05:10:18.280Z,79.77
2023-02-11T05:13:20.631Z,76.22
2023-02-11T05:16:23.009Z,79.22
2023-02-11T05:19:25.065Z,75.10
2023-02-11T05:22:27.017Z,73.85
2023-02-11T05:25:29.427Z,70.47
2023-02-11T05:28:31.538Z,73.07
2023-02-11T05:31:33.986Z,79.30
2023-02-11T05:34:36.134Z,73.82
2023-02-11T05:37:38.670Z,66.13
2023-02-11T05:40:41.182Z,72.17
2023-02-11T05:43:43.238Z,69.90
2023-02-11T05:46:45.815Z,70.47
2023-02-11T05:49:47.925Z,64.53
2023-02-11T05:52:50.225Z,61.97
2023-02-11T05:55:52.731Z,69.32
2023-02-11T05:58:54.884Z,64.90
2023-02-11T06:01:57.241Z,65.60
2023-02-11T06:04:59.593Z,66.53
2023-02-11T06:08:01.712Z,68.85
2023-02-11T06:11:03.757Z,65.53
2023-02-11T06:14:05.806Z,67.82
2023-02-11T06:17:08.235Z,69.03
2023-02-11T06:20:10.699Z,64.80
2023-02-11T06:23:12.626Z,70.55
2023-02-11T06:26:18.799Z,65.93
2023-02-11T06:29:21.118Z,66.97
2023-02-11T06:32:43.387Z,79.13
2023-02-11T06:35:45.610Z,78.55
2023-02-11T06:38:48.246Z,78.05
2023-02-11T06:41:50.303Z,72.90
2023-02-11T06:44:52.813Z,72.50
2023-02-11T06:47:54.910Z,70.05
2023-02-11T06:50:57.341Z,79.57
2023-02-11T06:53:59.341Z,82.65
2023-02-11T06:57:01.608Z,86.68
2023-02-11T07:00:05.356Z,79.30
2023-02-11T07:03:08.496Z,80.35
2023-02-11T07:06:15.403Z,84.88
2023-02-11T07:09:17.374Z,81.75
2023-02-11T07:12:19.315Z,76.30
2023-02-11T07:15:21.687Z,84.70
2023-02-11T07:18:23.588Z,86.35
2023-02-11T07:21:25.565Z,81.37
2023-02-11T07:24:27.641Z,82.95
2023-02-11T07:27:29.617Z,80.82
2023-02-11T07:30:31.673Z,82.55
2023-02-11T07:33:33.607Z,77.85
2023-02-11T07:36:35.620Z,85.22
2023-02-11T07:39:37.639Z,74.20
2023-02-11T07:42:41.364Z,80.63
2023-02-11T07:45:43.861Z,83.00
2023-02-11T07:48:45.827Z,69.70
2023-02-11T07:51:49.217Z,67.40
2023-02-11T07:54:51.201Z,71.55
2023-02-11T07:57:53.242Z,83.88
2023-02-11T08:00:55.286Z,95.97
2023-02-11T08:03:57.584Z,81.97
2023-02-11T08:06:59.558Z,76.38
2023-02-11T08:10:01.976Z,71.53
2023-02-11T08:13:03.904Z,77.17
2023-02-11T08:16:06.098Z,82.10
2023-02-11T08:19:10.330Z,75.40
2023-02-11T08:22:12.717Z,70.43
2023-02-11T08:25:15.253Z,72.57
2023-02-11T08:28:17.342Z,70.07
2023-02-11T08:31:20.704Z,73.00
2023-02-11T08:34:23.129Z,74.32
2023-02-11T08:37:25.118Z,74.00
2023-02-11T08:40:27.090Z,76.57
2023-02-11T08:43:29.209Z,72.40
2023-02-11T08:46:31.453Z,77.68
2023-02-11T08:49:34.171Z,70.57
2023-02-11T08:52:36.201Z,73.20
2023-02-11T08:55:38.183Z,79.35
2023-02-11T08:58:40.740Z,80.20
2023-02-11T09:01:44.281Z,73.00
2023-02-11T09:04:47.273Z,75.97
2023-02-11T09:07:49.276Z,71.82
2023-02-11T09:10:51.712Z,71.97
2023-02-11T09:13:54.654Z,74.23
2023-02-11T09:16:57.631Z,71.05
2023-02-11T09:19:59.813Z,76.65
2023-02-11T09:23:01.724Z,72.23
2023-02-11T09:26:09.209Z,69.22
2023-02-11T09:29:11.538Z,73.90
2023-02-11T09:32:13.646Z,67.90
2023-02-11T09:35:15.685Z,58.00
2023-02-11T09:38:17.665Z,60.60
2023-02-11T09:41:25.804Z,60.03
2023-02-11T09:44:28.738Z,61.83
2023-02-11T09:47:32.589Z,59.33
2023-02-11T09:50:35.794Z,56.60
2023-02-11T09:53:40.040Z,59.20
2023-02-11T09:56:42.416Z,52.65
2023-02-11T09:59:44.396Z,57.28
2023-02-11T10:02:49.474Z,51.08
2023-02-11T10:05:51.455Z,46.97
2023-02-11T10:08:53.461Z,51.45
2023-02-11T10:12:11.031Z,47.47
2023-02-11T10:15:26.489Z,43.73
2023-02-11T10:18:31.561Z,44.53
2023-02-11T10:21:51.739Z,46.08
2023-02-11T10:24:54.638Z,42.97
2023-02-11T10:27:57.514Z,43.55
2023-02-11T10:31:00.900Z,47.05
2023-02-11T10:34:04.341Z,46.58
2023-02-11T10:37:07.222Z,45.70
2023-02-11T10:40:19.394Z,47.80
2023-02-11T10:43:23.740Z,47.58
2023-02-11T10:46:27.380Z,43.17
2023-02-11T10:49:36.762Z,43.85
2023-02-11T10:52:39.093Z,49.80
2023-02-11T10:55:48.847Z,47.53
2023-02-11T10:59:21.673Z,57.53
2023-02-11T11:02:25.115Z,57.35
2023-02-11T11:05:31.874Z,50.05
2023-02-11T11:08:37.795Z,45.95
2023-02-11T11:11:39.818Z,43.58
2023-02-11T11:14:41.771Z,40.35
2023-02-11T11:17:43.831Z,43.77
2023-02-11T11:20:56.423Z,40.85
2023-02-11T11:23:58.913Z,45.88
2023-02-11T11:27:01.909Z,39.60
2023-02-11T11:30:04.490Z,43.58
2023-02-11T11:33:06.457Z,44.33
2023-02-11T11:36:09.445Z,42.92
2023-02-11T11:39:30.280Z,41.47
2023-02-11T11:42:32.935Z,39.05
2023-02-11T11:45:35.678Z,43.88
2023-02-11T11:48:38.374Z,45.95
2023-02-11T11:51:41.410Z,42.47
2023-02-11T11:54:44.003Z,47.47
2023-02-11T11:57:46.770Z,43.40
2023-02-11T12:01:02.385Z,40.20
2023-02-11T12:04:13.563Z,41.35
2023-02-11T12:07:34.674Z,42.22
2023-02-11T12:10:59.737Z,45.40
2023-02-11T12:14:10.970Z,43.88
2023-02-11T12:17:23.496Z,43.78
2023-02-11T12:20:31.600Z,39.45
2023-02-11T12:23:40.381Z,49.87
2023-02-11T12:27:01.217Z,46.92
2023-02-11T12:30:21.166Z,45.50
2023-02-11T12:33:32.387Z,39.35
2023-02-11T12:36:43.694Z,34.87
2023-02-11T12:39:57.626Z,37.47
2023-02-11T12:43:18.174Z,37.25
2023-02-11T12:46:32.197Z,36.50
2023-02-11T12:49:37.833Z,37.33
2023-02-11T12:52:39.772Z,30.85
2023-02-11T12:55:43.305Z,33.85
2023-02-11T12:58:45.975Z,29.95
2023-02-11T13:01:47.961Z,30.50
2023-02-11T13:04:52.762Z,28.43
2023-02-11T13:07:56.926Z,27.88
2023-02-11T13:11:00.639Z,24.63
2023-02-11T13:14:36.159Z,25.15
2023-02-11T13:17:40.868Z,30.10
2023-02-11T13:21:06.012Z,23.90
2023-02-11T13:24:26.850Z,26.00
2023-02-11T13:27:38.262Z,26.58
2023-02-11T13:30:47.004Z,22.70
2023-02-11T13:33:49.797Z,20.17
2023-02-11T13:36:55.266Z,23.55
2023-02-11T13:40:01.177Z,26.10
2023-02-11T13:43:06.641Z,29.00
2023-02-11T13:46:10.389Z,25.97
2023-02-11T13:49:18.200Z,24.15
2023-02-11T13:52:33.229Z,24.77
2023-02-11T13:55:35.782Z,23.92
2023-02-11T13:58:40.195Z,20.87
2023-02-11T14:02:07.148Z,20.83
2023-02-11T14:05:28.108Z,22.00
2023-02-11T14:08:49.083Z,20.55
2023-02-11T14:11:52.131Z,19.67
2023-02-11T14:15:07.952Z,20.93
2023-02-11T14:18:52.164Z,19.23
2023-02-11T14:21:54.598Z,21.52
2023-02-11T14:24:57.778Z,22.42
2023-02-11T14:27:59.796Z,19.97
2023-02-11T14:31:25.218Z,22.33
2023-02-11T14:34:42.211Z,24.55
2023-02-11T14:38:02.766Z,20.33
2023-02-11T14:41:11.226Z,23.80
2023-02-11T14:44:18.085Z,21.75
2023-02-11T14:47:21.253Z,25.92
2023-02-11T14:50:25.774Z,20.55
2023-02-11T14:53:27.836Z,22.37
2023-02-11T14:56:34.452Z,21.65
2023-02-11T14:59:36.544Z,23.38
2023-02-11T15:02:38.654Z,22.70
2023-02-11T15:05:41.570Z,23.47
2023-02-11T15:08:45.325Z,30.92
2023-02-11T15:11:48.077Z,27.80
2023-02-11T15:14:50.989Z,26.35
2023-02-11T15:17:53.677Z,27.27
2023-02-11T15:20:56.119Z,58.60
2023-02-11T15:23:59.505Z,78.28
2023-02-11T15:27:21.057Z,34.93
2023-02-11T15:30:23.055Z,28.75
2023-02-11T15:33:26.069Z,28.33
2023-02-11T15:36:29.665Z,27.83
2023-02-11T15:39:37.064Z,27.97
2023-02-11T15:42:52.175Z,25.55
2023-02-11T15:45:56.494Z,28.80
2023-02-11T15:48:58.908Z,28.50
2023-02-11T15:52:01.172Z,25.90
2023-02-11T15:55:03.316Z,30.35
2023-02-11T15:58:05.735Z,29.15
2023-02-11T16:01:07.701Z,23.70
2023-02-11T16:04:15.257Z,24.93
2023-02-11T16:07:36.427Z,33.10
2023-02-11T16:10:38.747Z,30.77
2023-02-11T16:13:47.298Z,31.17
2023-02-11T16:16:52.590Z,32.05
2023-02-11T16:19:54.821Z,28.88
2023-02-11T16:23:03.606Z,27.05
2023-02-11T16:26:08.796Z,32.70
2023-02-11T16:29:12.015Z,32.33
2023-02-11T16:32:18.376Z,32.17
2023-02-11T16:35:20.789Z,31.73
2023-02-11T16:38:22.742Z,28.20
2023-02-11T16:41:25.091Z,32.50
2023-02-11T16:44:27.289Z,29.80
2023-02-11T16:47:31.241Z,29.00
2023-02-11T16:50:33.589Z,30.85
2023-02-11T16:53:35.976Z,36.75
2023-02-11T16:56:37.900Z,32.33
2023-02-11T16:59:39.888Z,40.80
2023-02-11T17:02:42.270Z,37.42
2023-02-11T17:05:54.876Z,33.53
2023-02-11T17:08:57.912Z,33.47
2023-02-11T17:12:00.354Z,47.55
2023-02-11T17:15:02.703Z,41.13
2023-02-11T17:18:04.869Z,48.78
2023-02-11T17:21:07.323Z,33.42
2023-02-11T17:24:09.485Z,45.67
2023-02-11T17:27:11.691Z,37.00
2023-02-11T17:30:14.010Z,49.55
2023-02-11T17:33:16.215Z,47.65
2023-02-11T17:36:18.353Z,41.10
2023-02-11T17:39:21.186Z,38.17
2023-02-11T17:42:23.273Z,38.45
2023-02-11T17:45:25.796Z,34.43
2023-02-11T17:48:28.150Z,35.97
2023-02-11T17:51:34.264Z,36.58
2023-02-11T17:54:37.233Z,37.50
2023-02-11T17:57:39.795Z,34.58
2023-02-11T18:00:43.393Z,33.45
2023-02-11T18:03:45.460Z,36.03
2023-02-11T18:06:47.460Z,33.63
2023-02-11T18:09:49.857Z,34.65
2023-02-11T18:12:52.514Z,37.60
2023-02-11T18:15:54.719Z,35.20
2023-02-11T18:18:57.533Z,32.25
2023-02-11T18:22:01.209Z,34.63
2023-02-11T18:25:03.858Z,42.45
2023-02-11T18:28:05.935Z,37.97
2023-02-11T18:31:08.413Z,35.28
2023-02-11T18:34:11.453Z,39.05
2023-02-11T18:37:14.412Z,36.93
2023-02-11T18:40:16.943Z,39.83
2023-02-11T18:43:19.691Z,37.00
2023-02-11T18:46:21.931Z,40.00
2023-02-11T18:49:23.950Z,37.28
2023-02-11T18:52:26.679Z,41.08
2023-02-11T18:55:28.884Z,38.05
2023-02-11T18:58:31.391Z,37.00
2023-02-11T19:01:34.402Z,36.00
2023-02-11T19:04:37.367Z,36.30
2023-02-11T19:07:39.948Z,38.10
2023-02-11T19:10:42.908Z,35.95
2023-02-11T19:13:44.997Z,34.03
2023-02-11T19:16:47.228Z,35.80
2023-02-11T19:19:49.520Z,33.90
2023-02-11T19:22:51.491Z,33.90
2023-02-11T19:25:54.065Z,30.20
2023-02-11T19:28:56.200Z,32.15
2023-02-11T19:31:58.726Z,28.05
2023-02-11T19:35:00.761Z,27.45
2023-02-11T19:38:03.458Z,30.70
2023-02-11T19:41:06.161Z,32.08
2023-02-11T19:44:08.395Z,34.10
2023-02-11T19:47:10.684Z,31.70
2023-02-11T19:50:12.695Z,29.30
2023-02-11T19:53:14.832Z,33.08
2023-02-11T19:56:19.764Z,34.70
2023-02-11T19:59:22.665Z,31.80
2023-02-11T20:02:24.768Z,30.13
2023-02-11T20:05:26.730Z,27.50
2023-02-11T20:08:28.770Z,34.07
2023-02-11T20:11:30.977Z,29.42
2023-02-11T20:14:33.517Z,33.35
2023-02-11T20:17:35.615Z,29.40
2023-02-11T20:20:38.206Z,27.05
2023-02-11T20:23:40.794Z,28.70
2023-02-11T20:26:42.869Z,29.00
2023-02-11T20:29:44.862Z,27.38
2023-02-11T20:32:47.482Z,29.83
2023-02-11T20:35:58.326Z,32.58
2023-02-11T20:39:00.294Z,28.20
2023-02-11T20:42:02.287Z,31.38
2023-02-11T20:45:05.072Z,30.38
2023-02-11T20:48:07.411Z,31.07
2023-02-11T20:51:10.513Z,29.67
2023-02-11T20:54:13.262Z,29.42
2023-02-11T20:57:15.499Z,27.10
2023-02-11T21:00:17.782Z,31.83
2023-02-11T21:03:20.009Z,29.67
2023-02-11T21:06:22.229Z,29.20
2023-02-11T21:09:25.509Z,32.70
2023-02-11T21:12:27.774Z,28.48
2023-02-11T21:15:30.075Z,29.15
2023-02-11T21:18:32.712Z,29.20
2023-02-11T21:21:35.617Z,30.20
2023-02-11T21:24:37.598Z,27.50
2023-02-11T21:27:39.736Z,27.83
2023-02-11T21:30:42.328Z,30.52
2023-02-11T21:33:44.612Z,26.88
2023-02-11T21:36:46.557Z,26.15
2023-02-11T21:39:49.168Z,26.40
2023-02-11T21:42:51.532Z,27.17
2023-02-11T21:45:53.807Z,28.40
2023-02-11T21:48:56.882Z,30.20
2023-02-11T21:51:59.065Z,27.50
2023-02-11T21:55:01.431Z,30.17
2023-02-11T21:58:03.855Z,26.45
2023-02-11T22:01:12.931Z,25.92
2023-02-11T22:04:15.418Z,27.10
2023-02-11T22:07:17.373Z,27.25
2023-02-11T22:10:19.794Z,31.80
2023-02-11T22:13:23.868Z,30.50
2023-02-11T22:16:26.020Z,29.40
2023-02-11T22:19:28.086Z,31.13
2023-02-11T22:22:30.462Z,31.52
2023-02-11T22:25:32.480Z,29.33
2023-02-11T22:28:35.501Z,25.25
2023-02-11T22:31:37.794Z,26.52
2023-02-11T22:34:39.931Z,29.77
2023-02-11T22:37:41.897Z,25.02
2023-02-11T22:40:43.955Z,32.17
2023-02-11T22:43:46.471Z,29.00
2023-02-11T22:46:49.038Z,29.67
2023-02-11T22:49:50.991Z,28.20
2023-02-11T22:52:53.377Z,30.77
2023-02-11T22:55:55.664Z,26.27
2023-02-11T22:58:58.607Z,30.67
2023-02-11T23:02:00.757Z,28.17
2023-02-11T23:05:02.870Z,28.70
2023-02-11T23:08:05.080Z,28.27
2023-02-11T23:11:08.090Z,28.80
2023-02-11T23:14:12.355Z,27.42
2023-02-11T23:17:14.869Z,28.63
2023-02-11T23:20:17.266Z,27.20
2023-02-11T23:23:19.317Z,30.30
2023-02-11T23:26:21.393Z,27.33
2023-02-11T23:29:23.702Z,28.42
2023-02-11T23:32:26.152Z,29.17
2023-02-11T23:35:28.350Z,26.88
2023-02-11T23:38:30.369Z,33.65
2023-02-11T23:41:32.882Z,29.63
2023-02-11T23:44:35.309Z,27.63
2023-02-11T23:47:37.523Z,28.83
2023-02-11T23:50:40.022Z,28.07
2023-02-11T23:53:42.378Z,27.15
2023-02-11T23:56:44.876Z,24.60
2023-02-11T23:59:49.620Z,26.77
